createdAt,value
2018-06-11T00:02:02.448Z,10.50
2018-06-11T00:04:30.711Z,10.53
2018-06-11T00:06:58.958Z,10.18
2018-06-11T00:09:27.085Z,11.00
2018-06-11T00:11:55.144Z,10.27
2018-06-11T00:14:24.009Z,11.30
2018-06-11T00:16:52.369Z,10.70
2018-06-11T00:19:20.487Z,10.60
2018-06-11T00:21:48.534Z,10.17
2018-06-11T00:24:16.616Z,10.73
2018-06-11T00:26:44.664Z,24.17
2018-06-11T00:29:12.813Z,10.87
2018-06-11T00:31:40.919Z,11.03
2018-06-11T00:34:08.992Z,10.60
2018-06-11T00:36:37.110Z,10.50
2018-06-11T00:39:07.638Z,10.63
2018-06-11T00:41:35.918Z,11.85
2018-06-11T00:44:04.545Z,10.85
2018-06-11T00:46:32.696Z,11.00
2018-06-11T00:49:03.004Z,12.37
2018-06-11T00:51:31.282Z,12.07
2018-06-11T00:54:00.037Z,12.30
2018-06-11T00:56:28.175Z,11.73
2018-06-11T00:58:56.629Z,11.33
2018-06-11T01:01:25.318Z,12.35
2018-06-11T01:03:54.354Z,12.25
2018-06-11T01:06:23.342Z,12.23
2018-06-11T01:08:52.043Z,11.70
2018-06-11T01:11:20.186Z,12.03
2018-06-11T01:13:48.349Z,12.27
2018-06-11T01:16:17.766Z,12.10
2018-06-11T01:18:48.088Z,11.60
2018-06-11T01:21:16.369Z,12.93
2018-06-11T01:23:45.114Z,11.97
2018-06-11T01:26:13.537Z,24.40
2018-06-11T01:28:42.322Z,14.07
2018-06-11T01:31:10.471Z,12.10
2018-06-11T01:33:38.623Z,12.00
2018-06-11T01:36:06.750Z,12.50
2018-06-11T01:38:35.299Z,12.80
2018-06-11T01:41:04.616Z,13.60
2018-06-11T01:43:33.031Z,12.37
2018-06-11T01:46:01.695Z,12.27
2018-06-11T01:48:32.493Z,12.40
2018-06-11T01:51:01.060Z,12.87
2018-06-11T01:53:29.171Z,13.00
2018-06-11T01:55:57.253Z,13.20
2018-06-11T01:58:25.464Z,13.00
2018-06-11T02:00:54.212Z,13.30
2018-06-11T02:03:22.697Z,13.03
2018-06-11T02:05:50.835Z,13.93
2018-06-11T02:08:18.974Z,13.00
2018-06-11T02:10:47.524Z,13.78
2018-06-11T02:13:15.667Z,13.07
2018-06-11T02:15:43.839Z,14.00
2018-06-11T02:18:13.173Z,13.30
2018-06-11T02:20:41.317Z,13.28
2018-06-11T02:23:10.223Z,12.95
2018-06-11T02:25:39.183Z,14.13
2018-06-11T02:28:07.327Z,13.00
2018-06-11T02:30:35.498Z,13.38
2018-06-11T02:33:04.005Z,13.90
2018-06-11T02:35:32.871Z,14.43
2018-06-11T02:38:00.988Z,14.45
2018-06-11T02:40:29.318Z,13.53
2018-06-11T02:42:57.487Z,14.80
2018-06-11T02:45:25.765Z,14.70
2018-06-11T02:47:54.327Z,14.87
2018-06-11T02:50:23.309Z,14.10
2018-06-11T02:54:12.092Z,13.87
2018-06-11T02:56:40.200Z,15.20
2018-06-11T02:59:09.366Z,16.00
2018-06-11T03:01:38.014Z,14.97
2018-06-11T03:04:06.328Z,15.10
2018-06-11T03:06:35.359Z,15.10
2018-06-11T03:09:03.934Z,15.70
2018-06-11T03:11:32.080Z,15.97
2018-06-11T03:14:00.311Z,16.10
2018-06-11T03:16:28.384Z,14.90
2018-06-11T03:18:57.052Z,16.10
2018-06-11T03:21:25.135Z,15.87
2018-06-11T03:23:53.718Z,16.40
2018-06-11T03:26:22.567Z,15.47
2018-06-11T03:28:54.222Z,16.90
2018-06-11T03:31:22.391Z,16.40
2018-06-11T03:33:53.335Z,16.73
2018-06-11T03:36:21.659Z,16.03
2018-06-11T03:38:49.826Z,17.07
2018-06-11T03:41:18.311Z,16.40
2018-06-11T03:43:46.531Z,18.50
2018-06-11T03:46:15.684Z,17.33
2018-06-11T03:48:43.799Z,17.33
2018-06-11T03:51:13.391Z,17.50
2018-06-11T03:53:41.521Z,17.82
2018-06-11T03:56:10.074Z,17.30
2018-06-11T03:58:38.196Z,18.00
2018-06-11T04:01:06.316Z,17.45
2018-06-11T04:03:34.478Z,17.95
2018-06-11T04:06:02.706Z,17.30
2018-06-11T04:08:32.077Z,17.10
2018-06-11T04:11:00.801Z,16.80
2018-06-11T04:13:29.457Z,17.27
2018-06-11T04:15:57.570Z,17.30
2018-06-11T04:18:25.758Z,17.23
2018-06-11T04:20:54.931Z,17.57
2018-06-11T04:23:23.970Z,18.83
2018-06-11T04:25:52.302Z,17.37
2018-06-11T04:28:20.629Z,16.67
2018-06-11T04:30:49.123Z,18.50
2018-06-11T04:33:17.271Z,18.20
2018-06-11T04:35:45.349Z,18.40
2018-06-11T04:38:13.443Z,17.63
2018-06-11T04:40:41.596Z,17.13
2018-06-11T04:43:09.655Z,18.03
2018-06-11T04:45:37.756Z,18.32
2018-06-11T04:48:06.164Z,17.93
2018-06-11T04:50:34.660Z,19.20
2018-06-11T04:53:03.391Z,18.67
2018-06-11T04:55:31.711Z,18.27
2018-06-11T04:57:59.857Z,18.85
2018-06-11T05:00:28.717Z,17.57
2018-06-11T05:02:57.767Z,18.13
2018-06-11T05:05:25.900Z,17.57
2018-06-11T05:15:48.996Z,18.20
2018-06-11T05:18:17.192Z,17.40
2018-06-11T05:20:46.459Z,17.73
2018-06-11T05:23:14.612Z,18.20
2018-06-11T05:25:42.715Z,18.15
2018-06-11T05:28:10.866Z,17.23
2018-06-11T05:30:40.334Z,16.90
2018-06-11T05:33:09.741Z,17.57
2018-06-11T05:35:38.027Z,18.20
2018-06-11T05:38:07.902Z,17.15
2018-06-11T05:40:36.229Z,15.45
2018-06-11T05:43:04.432Z,18.43
2018-06-11T05:45:32.859Z,17.92
2018-06-11T05:48:01.005Z,18.30
2018-06-11T05:50:29.406Z,18.07
2018-06-11T05:52:58.132Z,16.97
2018-06-11T05:55:26.310Z,15.77
2018-06-11T05:57:55.385Z,16.73
2018-06-11T06:00:23.626Z,15.97
2018-06-11T06:02:51.810Z,16.50
2018-06-11T06:05:19.947Z,16.90
2018-06-11T06:07:48.088Z,15.93
2018-06-11T06:10:16.278Z,16.33
2018-06-11T06:12:44.467Z,17.10
2018-06-11T06:15:13.277Z,16.67
2018-06-11T06:17:43.626Z,14.60
2018-06-11T06:20:11.747Z,17.17
2018-06-11T06:22:41.179Z,16.48
2018-06-11T06:25:10.658Z,14.77
2018-06-11T06:27:38.828Z,16.07
2018-06-11T06:30:07.384Z,14.60
2018-06-11T06:32:37.096Z,14.27
2018-06-11T06:35:05.355Z,17.40
2018-06-11T06:37:33.609Z,16.07
2018-06-11T06:40:02.130Z,20.64
2018-06-11T06:42:30.334Z,14.80
2018-06-11T06:44:58.915Z,15.73
2018-06-11T06:47:27.118Z,14.03
2018-06-11T06:49:55.879Z,13.32
2018-06-11T06:52:24.119Z,13.27
2018-06-11T06:54:52.231Z,13.70
2018-06-11T06:57:23.126Z,13.20
2018-06-11T06:59:52.424Z,13.60
2018-06-11T07:02:21.203Z,12.47
2018-06-11T07:04:49.294Z,11.50
2018-06-11T07:07:17.411Z,11.70
2018-06-11T07:09:45.570Z,12.67
2018-06-11T07:12:13.775Z,12.70
2018-06-11T07:14:41.890Z,11.85
2018-06-11T07:17:11.387Z,12.50
2018-06-11T07:19:39.589Z,12.00
2018-06-11T07:22:07.696Z,13.03
2018-06-11T07:24:35.834Z,11.53
2018-06-11T07:27:04.017Z,11.80
2018-06-11T07:29:32.948Z,11.00
2018-06-11T07:32:01.070Z,11.40
2018-06-11T07:34:29.840Z,11.77
2018-06-11T07:36:58.025Z,12.00
2018-06-11T07:39:26.151Z,11.87
2018-06-11T07:41:57.915Z,12.50
2018-06-11T07:44:41.523Z,11.80
2018-06-11T07:47:17.682Z,11.80
2018-06-11T07:49:46.271Z,10.97
2018-06-11T07:52:14.515Z,12.37
2018-06-11T07:54:43.055Z,12.75
2018-06-11T07:57:12.707Z,11.70
2018-06-11T07:59:41.079Z,11.70
2018-06-11T08:02:11.488Z,11.15
2018-06-11T08:04:41.336Z,11.13
2018-06-11T08:07:09.911Z,12.07
2018-06-11T08:09:38.531Z,11.73
2018-06-11T08:12:07.405Z,11.25
2018-06-11T08:14:36.135Z,11.50
2018-06-11T08:17:04.238Z,12.23
2018-06-11T08:19:32.821Z,11.85
2018-06-11T08:22:00.944Z,12.55
2018-06-11T08:24:29.938Z,10.60
2018-06-11T08:26:58.059Z,12.80
2018-06-11T08:29:26.933Z,12.00
2018-06-11T08:31:56.064Z,13.73
2018-06-11T08:34:24.199Z,12.93
2018-06-11T08:36:52.340Z,11.80
2018-06-11T08:39:20.552Z,12.70
2018-06-11T08:41:48.687Z,13.20
2018-06-11T08:44:16.758Z,13.07
2018-06-11T08:46:46.654Z,13.07
2018-06-11T08:49:15.050Z,12.30
2018-06-11T08:51:44.643Z,12.85
2018-06-11T08:54:12.753Z,12.68
2018-06-11T08:56:40.927Z,12.90
2018-06-11T08:59:09.079Z,13.93
2018-06-11T09:01:37.235Z,13.20
2018-06-11T09:04:05.469Z,11.97
2018-06-11T09:06:34.441Z,12.43
2018-06-11T09:09:02.560Z,12.88
2018-06-11T09:11:30.714Z,11.70
2018-06-11T09:13:58.799Z,11.57
2018-06-11T09:16:26.968Z,11.20
2018-06-11T09:18:55.047Z,12.10
2018-06-11T09:21:23.183Z,12.30
2018-06-11T09:23:51.344Z,10.33
2018-06-11T09:26:19.564Z,10.70
2018-06-11T09:28:47.671Z,10.10
2018-06-11T09:31:15.982Z,12.97
2018-06-11T09:33:44.106Z,12.78
2018-06-11T09:36:13.800Z,11.93
2018-06-11T09:38:41.903Z,12.18
2018-06-11T09:41:10.352Z,11.23
2018-06-11T09:43:38.627Z,11.90
2018-06-11T09:46:08.293Z,12.07
2018-06-11T09:48:38.876Z,11.08
2018-06-11T09:51:07.055Z,12.95
2018-06-11T09:53:35.184Z,13.10
2018-06-11T09:56:03.712Z,10.72
2018-06-11T09:58:31.831Z,12.23
2018-06-11T10:00:59.964Z,11.37
2018-06-11T10:03:28.300Z,12.10
2018-06-11T10:05:56.498Z,12.40
2018-06-11T10:08:24.603Z,11.50
2018-06-11T10:10:53.399Z,11.77
2018-06-11T10:13:21.486Z,9.67
2018-06-11T10:15:49.627Z,12.13
2018-06-11T10:18:18.190Z,11.83
2018-06-11T10:20:47.159Z,11.43
2018-06-11T10:23:15.657Z,11.40
2018-06-11T10:25:43.757Z,12.57
2018-06-11T10:28:12.979Z,12.43
2018-06-11T10:30:41.097Z,12.50
2018-06-11T10:33:09.252Z,12.58
2018-06-11T10:35:38.240Z,11.50
2018-06-11T10:38:06.593Z,11.67
2018-06-11T10:40:35.108Z,10.60
2018-06-11T10:43:03.256Z,11.80
2018-06-11T10:45:31.513Z,11.97
2018-06-11T10:47:59.689Z,11.63
2018-06-11T10:50:28.334Z,11.60
2018-06-11T10:52:56.691Z,11.90
2018-06-11T10:55:25.295Z,10.90
2018-06-11T10:57:53.404Z,11.63
2018-06-11T11:00:21.561Z,11.97
2018-06-11T11:02:49.662Z,12.73
2018-06-11T11:05:17.758Z,14.17
2018-06-11T11:07:45.911Z,12.27
2018-06-11T11:10:14.075Z,13.18
2018-06-11T11:12:42.241Z,12.50
2018-06-11T11:15:10.498Z,13.93
2018-06-11T11:17:39.094Z,11.28
2018-06-11T11:20:07.486Z,13.85
2018-06-11T11:22:35.657Z,12.50
2018-06-11T11:25:03.880Z,12.67
2018-06-11T11:27:32.344Z,11.60
2018-06-11T11:30:01.377Z,10.93
2018-06-11T11:32:29.994Z,11.47
2018-06-11T11:34:58.261Z,12.33
2018-06-11T11:37:27.023Z,12.90
2018-06-11T11:39:55.537Z,10.70
2018-06-11T11:42:24.017Z,10.80
2018-06-11T11:44:52.295Z,11.60
2018-06-11T11:47:20.702Z,10.60
2018-06-11T11:49:48.883Z,12.40
2018-06-11T11:52:16.995Z,12.70
2018-06-11T11:54:45.138Z,10.73
2018-06-11T11:57:13.984Z,11.50
2018-06-11T11:59:42.112Z,11.20
2018-06-11T12:02:10.307Z,12.77
2018-06-11T12:04:38.509Z,13.00
2018-06-11T12:07:06.672Z,12.88
2018-06-11T12:09:34.739Z,12.70
2018-06-11T12:12:03.100Z,13.72
2018-06-11T12:14:31.341Z,11.53
2018-06-11T12:16:59.722Z,13.00
2018-06-11T12:19:27.998Z,12.70
2018-06-11T12:21:58.209Z,12.10
2018-06-11T12:24:27.094Z,12.70
2018-06-11T12:26:55.475Z,13.77
2018-06-11T12:29:23.562Z,12.67
2018-06-11T12:31:51.663Z,14.13
2018-06-11T12:34:19.761Z,13.23
2018-06-11T12:36:48.172Z,14.80
2018-06-11T12:39:16.307Z,14.57
2018-06-11T12:41:44.387Z,13.63
2018-06-11T12:44:13.285Z,14.40
2018-06-11T12:46:41.370Z,13.47
2018-06-11T12:49:09.453Z,14.25
2018-06-11T12:51:37.560Z,13.35
2018-06-11T12:54:05.738Z,13.07
2018-06-11T12:56:33.849Z,12.77
2018-06-11T12:59:03.212Z,13.38
2018-06-11T13:01:31.326Z,13.97
2018-06-11T13:03:59.896Z,13.37
2018-06-11T13:06:28.018Z,13.93
2018-06-11T13:08:56.173Z,12.17
2018-06-11T13:11:24.288Z,13.53
2018-06-11T13:13:52.390Z,13.70
2018-06-11T13:16:20.530Z,13.33
2018-06-11T13:18:49.247Z,13.40
2018-06-11T13:21:17.380Z,13.30
2018-06-11T13:23:46.126Z,14.20
2018-06-11T13:26:14.232Z,13.77
2018-06-11T13:28:42.401Z,13.30
2018-06-11T13:31:10.656Z,13.43
2018-06-11T13:33:38.874Z,13.40
2018-06-11T13:36:07.095Z,13.20
2018-06-11T13:38:35.457Z,14.10
2018-06-11T13:41:03.563Z,13.67
2018-06-11T13:43:31.705Z,14.47
2018-06-11T13:45:59.873Z,14.00
2018-06-11T13:48:28.135Z,14.70
2018-06-11T13:50:57.221Z,13.20
2018-06-11T13:53:25.343Z,14.00
2018-06-11T13:55:53.540Z,12.80
2018-06-11T13:58:21.992Z,13.30
2018-06-11T14:00:50.101Z,13.30
2018-06-11T14:03:18.229Z,13.40
2018-06-11T14:05:46.365Z,14.00
2018-06-11T14:08:14.465Z,13.67
2018-06-11T14:10:42.648Z,13.20
2018-06-11T14:13:11.019Z,14.80
2018-06-11T14:15:39.630Z,14.07
2018-06-11T14:18:07.863Z,13.97
2018-06-11T14:20:36.043Z,12.80
2018-06-11T14:23:04.339Z,13.58
2018-06-11T14:25:32.627Z,14.80
2018-06-11T14:28:00.796Z,13.90
2018-06-11T14:30:28.960Z,14.47
2018-06-11T14:32:57.699Z,15.00
2018-06-11T14:35:25.834Z,16.70
2018-06-11T14:37:53.977Z,13.90
2018-06-11T14:40:22.092Z,14.53
2018-06-11T14:42:50.613Z,13.90
2018-06-11T14:45:18.804Z,17.73
2018-06-11T14:47:46.966Z,14.73
2018-06-11T14:50:15.969Z,13.60
2018-06-11T14:52:44.985Z,12.15
2018-06-11T14:55:13.068Z,9.83
2018-06-11T14:57:41.367Z,10.20
2018-06-11T15:00:09.497Z,8.75
2018-06-11T15:02:37.605Z,8.63
2018-06-11T15:05:05.726Z,9.13
2018-06-11T15:07:34.509Z,9.03
2018-06-11T15:10:02.664Z,10.23
2018-06-11T15:12:30.762Z,11.10
2018-06-11T15:14:58.908Z,11.03
2018-06-11T15:17:28.792Z,11.93
2018-06-11T15:19:58.311Z,14.25
2018-06-11T15:22:26.936Z,17.13
2018-06-11T15:25:16.408Z,18.43
2018-06-11T15:27:44.509Z,21.33
2018-06-11T15:30:12.682Z,20.43
2018-06-11T15:32:40.806Z,20.80
2018-06-11T15:35:09.079Z,20.80
2018-06-11T15:37:37.790Z,21.43
2018-06-11T15:40:05.898Z,21.70
2018-06-11T15:42:34.470Z,21.65
2018-06-11T15:45:02.582Z,21.30
2018-06-11T15:47:30.862Z,21.80
2018-06-11T15:49:58.961Z,21.53
2018-06-11T15:52:28.072Z,21.52
2018-06-11T15:54:56.142Z,23.87
2018-06-11T15:57:24.994Z,25.30
2018-06-11T15:59:54.035Z,25.60
2018-06-11T16:02:22.145Z,25.20
2018-06-11T16:04:50.222Z,25.93
2018-06-11T16:07:18.350Z,24.57
2018-06-11T16:09:46.426Z,24.70
2018-06-11T16:12:15.055Z,26.30
2018-06-11T16:14:43.110Z,27.33
2018-06-11T16:17:11.162Z,27.30
2018-06-11T16:19:39.241Z,28.32
2018-06-11T16:22:07.331Z,27.87
2018-06-11T16:24:35.474Z,27.27
2018-06-11T16:27:04.002Z,27.87
2018-06-11T16:29:32.066Z,29.00
2018-06-11T16:32:00.151Z,29.05
2018-06-11T16:34:28.271Z,28.92
2018-06-11T16:36:57.420Z,30.40
2018-06-11T16:39:25.510Z,27.73
2018-06-11T16:41:54.144Z,30.70
2018-06-11T16:44:22.224Z,28.73
2018-06-11T16:46:50.330Z,27.83
2018-06-11T16:49:18.509Z,29.00
2018-06-11T16:51:46.714Z,27.90
2018-06-11T16:54:15.446Z,28.73
2018-06-11T16:56:44.595Z,29.10
2018-06-11T16:59:12.718Z,29.73
2018-06-11T17:01:40.910Z,32.73
2018-06-11T17:04:09.284Z,32.20
2018-06-11T17:06:37.346Z,31.60
2018-06-11T17:09:07.782Z,31.87
2018-06-11T17:11:36.694Z,35.07
2018-06-11T17:14:04.818Z,32.33
2018-06-11T17:16:32.896Z,31.42
2018-06-11T17:19:01.968Z,31.83
2018-06-11T17:21:30.091Z,30.20
2018-06-11T17:23:58.616Z,28.35
2018-06-11T17:26:27.659Z,30.87
2018-06-11T17:28:55.724Z,26.67
2018-06-11T17:31:23.920Z,31.67
2018-06-11T17:33:52.286Z,29.57
2018-06-11T17:36:21.759Z,29.17
2018-06-11T17:38:50.790Z,28.17
2018-06-11T17:41:21.214Z,29.70
2018-06-11T17:43:49.303Z,28.70
2018-06-11T17:46:17.550Z,29.73
2018-06-11T17:48:47.626Z,29.03
2018-06-11T17:51:15.760Z,28.07
2018-06-11T17:53:44.352Z,28.27
2018-06-11T17:56:12.614Z,30.20
2018-06-11T17:58:41.979Z,28.12
2018-06-11T18:01:10.190Z,31.23
2018-06-11T18:03:38.363Z,30.20
2018-06-11T18:06:07.624Z,30.05
2018-06-11T18:08:35.646Z,29.20
2018-06-11T18:11:03.821Z,30.52
2018-06-11T18:13:32.046Z,30.20
2018-06-11T18:16:00.657Z,31.53
2018-06-11T18:18:29.262Z,31.60
2018-06-11T18:20:57.979Z,29.60
2018-06-11T18:23:26.425Z,29.30
2018-06-11T18:25:54.574Z,29.10
2018-06-11T18:28:22.763Z,28.80
2018-06-11T18:30:51.595Z,29.83
2018-06-11T18:33:19.701Z,30.07
2018-06-11T18:35:48.027Z,29.93
2018-06-11T18:38:16.197Z,29.92
2018-06-11T18:40:44.628Z,30.77
2018-06-11T18:43:15.157Z,29.65
2018-06-11T18:45:43.322Z,27.00
2018-06-11T18:48:12.307Z,25.70
2018-06-11T18:50:42.630Z,26.97
2018-06-11T18:53:11.063Z,27.20
2018-06-11T18:55:39.467Z,27.20
2018-06-11T18:58:07.984Z,28.57
2018-06-11T19:00:36.150Z,27.46
2018-06-11T19:03:04.863Z,26.43
2018-06-11T19:05:33.630Z,27.13
2018-06-11T19:08:01.921Z,28.53
2018-06-11T19:10:36.271Z,26.54
2018-06-11T19:13:04.560Z,26.50
2018-06-11T19:15:33.663Z,27.60
2018-06-11T19:18:02.734Z,25.63
2018-06-11T19:20:32.004Z,27.30
2018-06-11T19:23:00.324Z,27.60
2018-06-11T19:25:29.322Z,25.43
2018-06-11T19:27:59.565Z,27.67
2018-06-11T19:30:29.088Z,31.50
2018-06-11T19:32:57.306Z,32.47
2018-06-11T19:35:25.477Z,26.33
2018-06-11T19:37:55.049Z,27.00
2018-06-11T19:40:23.447Z,26.00
2018-06-11T19:42:51.658Z,28.03
2018-06-11T19:45:20.417Z,26.00
2018-06-11T19:47:48.590Z,28.40
2018-06-11T19:50:17.578Z,27.47
2018-06-11T19:52:45.637Z,26.77
2018-06-11T19:55:14.159Z,27.17
2018-06-11T19:57:42.234Z,27.63
2018-06-11T20:00:10.334Z,32.00
2018-06-11T20:02:38.421Z,29.05
2018-06-11T20:05:07.520Z,26.75
2018-06-11T20:07:36.781Z,25.60
2018-06-11T20:10:05.082Z,25.93
2018-06-11T20:12:33.289Z,28.10
2018-06-11T20:15:01.373Z,27.52
2018-06-11T20:17:30.527Z,27.50
2018-06-11T20:20:00.947Z,27.82
2018-06-11T20:22:29.638Z,28.57
2018-06-11T20:24:57.925Z,28.43
2018-06-11T20:27:27.294Z,27.70
2018-06-11T20:29:55.403Z,26.77
2018-06-11T20:32:23.566Z,26.90
2018-06-11T20:34:51.807Z,27.57
2018-06-11T20:37:20.033Z,26.97
2018-06-11T20:39:48.128Z,26.77
2018-06-11T20:42:16.410Z,26.50
2018-06-11T20:44:44.516Z,26.77
2018-06-11T20:47:13.747Z,26.33
2018-06-11T20:49:42.043Z,24.63
2018-06-11T20:52:11.468Z,25.57
2018-06-11T20:54:39.602Z,24.23
2018-06-11T20:57:07.930Z,24.05
2018-06-11T20:59:36.006Z,24.63
2018-06-11T21:02:04.066Z,23.93
2018-06-11T21:04:32.351Z,22.47
2018-06-11T21:07:01.410Z,21.37
2018-06-11T21:09:29.866Z,21.17
2018-06-11T21:11:58.109Z,19.17
2018-06-11T21:14:26.234Z,20.20
2018-06-11T21:16:54.405Z,19.90
2018-06-11T21:19:22.818Z,22.77
2018-06-11T21:21:51.863Z,18.73
2018-06-11T21:24:20.266Z,18.20
2018-06-11T21:26:48.552Z,17.95
2018-06-11T21:29:16.790Z,18.70
2018-06-11T21:31:44.917Z,16.77
2018-06-11T21:34:13.167Z,16.50
2018-06-11T21:36:41.296Z,17.63
2018-06-11T21:39:09.396Z,17.27
2018-06-11T21:41:38.416Z,15.47
2018-06-11T21:44:06.738Z,16.00
2018-06-11T21:46:35.032Z,16.23
2018-06-11T21:49:03.226Z,15.67
2018-06-11T21:51:31.382Z,15.50
2018-06-11T21:54:01.131Z,14.85
2018-06-11T21:56:30.394Z,15.25
2018-06-11T21:58:59.473Z,15.13
2018-06-11T22:01:27.993Z,13.90
2018-06-11T22:03:56.435Z,14.00
2018-06-11T22:06:24.612Z,14.30
2018-06-11T22:08:52.858Z,15.00
2018-06-11T22:11:21.146Z,13.93
2018-06-11T22:13:50.082Z,15.37
2018-06-11T22:16:18.232Z,13.57
2018-06-11T22:18:46.352Z,13.60
2018-06-11T22:21:14.643Z,14.43
2018-06-11T22:23:42.947Z,15.20
2018-06-11T22:26:11.736Z,14.07
2018-06-11T22:28:40.480Z,14.73
2018-06-11T22:31:08.815Z,14.33
2018-06-11T22:33:37.002Z,13.80
2018-06-11T22:36:05.259Z,13.15
2018-06-11T22:38:33.469Z,13.97
2018-06-11T22:41:01.741Z,14.07
2018-06-11T22:43:30.375Z,14.50
2018-06-11T22:45:59.285Z,13.27
2018-06-11T22:48:27.445Z,13.30
2018-06-11T22:50:55.834Z,13.10
2018-06-11T22:53:25.126Z,14.17
2018-06-11T22:55:53.301Z,12.67
2018-06-11T22:58:22.141Z,13.30
2018-06-11T23:00:50.274Z,12.43
2018-06-11T23:03:18.394Z,13.43
2018-06-11T23:05:46.614Z,12.82
2018-06-11T23:08:15.554Z,12.50
2018-06-11T23:10:44.396Z,12.58
2018-06-11T23:13:12.508Z,13.43
2018-06-11T23:15:41.003Z,13.30
2018-06-11T23:18:09.520Z,13.33
2018-06-11T23:20:37.633Z,12.45
2018-06-11T23:23:06.338Z,14.23
2018-06-11T23:25:34.460Z,12.57
2018-06-11T23:28:02.954Z,12.00
2018-06-11T23:30:31.134Z,13.53
2018-06-11T23:32:59.432Z,12.50
2018-06-11T23:35:27.560Z,12.10
2018-06-11T23:37:55.690Z,13.70
2018-06-11T23:40:23.870Z,15.80
2018-06-11T23:42:52.113Z,13.07
2018-06-11T23:45:22.099Z,11.63
2018-06-11T23:47:50.515Z,12.30
2018-06-11T23:50:18.659Z,12.33
2018-06-11T23:52:46.796Z,11.50
2018-06-11T23:55:15.145Z,12.07
2018-06-11T23:57:43.266Z,11.97
